Time;durP1;ratioP1;P1;durP2;ratioP2;P2;SDS_P1;SDS_P2;PMS_P1;PMS_P2;Temp;Humidity;BMP_temperature;BMP_pressure;BME280_temperature;BME280_humidity;BME280_pressure;Samples;Min_cycle;Max_cycle;Signal;HPM_P1;HPM_P2
2024/02/13 00:00:08;;;;;;;;;;;;;;;-144.99;100.00;52588.75;5018992;28;19929;-72
2024/02/13 00:02:35;;;;;;;;;;;;;;;-144.99;100.00;52592.81;5024635;28;19929;-71
2024/02/13 00:05:01;;;;;;;;;;;;;;;-144.99;100.00;52598.94;5018686;28;19968;-66
2024/02/13 00:07:29;;;;;;;;;;;;;;;-144.99;100.00;52615.25;5022195;28;19972;-69
2024/02/13 00:09:56;;;;;;;;;;;;;;;-144.99;100.00;52574.47;5027175;28;19995;-69
2024/02/13 00:12:22;;;;;;;;;;;;;;;-144.99;100.00;52590.78;5025442;28;20028;-69
2024/02/13 00:14:49;;;;;;;;;;;;;;;-144.99;100.00;52613.19;4675340;28;9999746;-69
2024/02/13 00:17:16;;;;;;;;;;;;;;;-144.99;100.00;52598.94;5026934;28;19937;-70
2024/02/13 00:19:43;;;;;;;;;;;;;;;-144.99;100.00;52566.31;5022644;28;19929;-70
2024/02/13 00:22:11;;;;;;;;;;;;;;;-144.99;100.00;52590.78;5028497;28;19929;-70
2024/02/13 00:24:39;;;;;;;;;;;;;;;-144.99;100.00;52623.38;5025604;28;19941;-70
2024/02/13 00:27:06;;;;;;;;;;;;;;;-144.99;100.00;52627.47;5023690;28;20424;-70
2024/02/13 00:29:33;;;;;;;;;;;;;;;-144.99;100.00;52619.31;5029810;28;19925;-70
2024/02/13 00:32:00;;;;;;;;;;;;;;;-144.99;100.00;52639.69;5023746;28;20247;-70
2024/02/13 00:34:27;;;;;;;;;;;;;;;-144.99;100.00;52594.84;5026957;28;19931;-70
2024/02/13 00:36:53;;;;;;;;;;;;;;;-144.99;100.00;52617.28;5026244;28;20370;-71
2024/02/13 00:39:20;;;;;;;;;;;;;;;-144.99;100.00;52607.09;5029488;28;20372;-69
2024/02/13 00:41:48;;;;;;;;;;;;;;;-144.99;100.00;52639.69;5027606;28;20016;-68
2024/02/13 00:44:14;;;;;;;;;;;;;;;-144.99;100.00;52574.47;5025298;28;19935;-69
2024/02/13 00:46:41;;;;;;;;;;;;;;;-144.99;100.00;52643.78;5019176;28;20370;-68
2024/02/13 00:49:07;;;;;;;;;;;;;;;-144.99;100.00;52623.38;5028621;28;20383;-68
2024/02/13 00:51:34;;;;;;;;;;;;;;;-144.99;100.00;52639.69;5026497;28;20172;-69
2024/02/13 00:54:00;;;;;;;;;;;;;;;-144.99;100.00;52603.00;5027696;28;19944;-69
2024/02/13 00:56:27;;;;;;;;;;;;;;;-144.99;100.00;52623.38;5027631;28;19925;-69
2024/02/13 00:59:02;;;;;;;;;;;;;;;-144.99;100.00;52639.69;5023396;28;19933;-69
2024/02/13 01:01:28;;;;;;;;;;;;;;;-144.99;100.00;52592.81;5025622;28;19964;-69
2024/02/13 01:03:54;;;;;;;;;;;;;;;-144.99;100.00;52607.09;5029560;28;19924;-70
2024/02/13 01:06:22;;;;;;;;;;;;;;;-144.99;100.00;52605.03;5025925;28;19989;-70
2024/02/13 01:08:48;;;;;;;;;;;;;;;-144.99;100.00;52588.75;5028023;28;19935;-69
2024/02/13 01:11:17;;;;;;;;;;;;;;;-144.99;100.00;52605.03;5025587;28;19968;-70
2024/02/13 01:13:44;;;;;;;;;;;;;;;-144.99;100.00;52598.94;5023145;28;19976;-71
2024/02/13 01:16:12;;;;;;;;;;;;;;;-144.99;100.00;52647.84;5026808;28;20315;-71
2024/02/13 01:18:38;;;;;;;;;;;;;;;-144.99;100.00;52651.94;5024528;28;19960;-70
2024/02/13 01:21:10;;;;;;;;;;;;;;;-144.99;100.00;52609.13;5020461;28;20015;-71
2024/02/13 01:23:37;;;;;;;;;;;;;;;-144.99;100.00;52607.09;5028600;28;20374;-71
2024/02/13 01:26:04;;;;;;;;;;;;;;;-144.99;100.00;52645.81;5027284;28;20394;-72
2024/02/13 01:28:30;;;;;;;;;;;;;;;-144.99;100.00;52668.22;5026839;28;19925;-72
2024/02/13 01:30:58;;;;;;;;;;;;;;;-144.99;100.00;52586.69;5028581;28;19983;-72
2024/02/13 01:33:26;;;;;;;;;;;;;;;-144.99;100.00;52607.09;5020358;28;19932;-71
2024/02/13 01:35:53;;;;;;;;;;;;;;;-144.99;100.00;52647.84;5017820;28;19960;-72
2024/02/13 01:38:21;;;;;;;;;;;;;;;-144.99;100.00;52613.19;5024833;28;19925;-74
2024/02/13 01:40:48;;;;;;;;;;;;;;;-144.99;100.00;52633.59;5029553;28;19925;-73
2024/02/13 01:43:14;;;;;;;;;;;;;;;-144.99;100.00;52619.31;5029484;28;19929;-72
2024/02/13 01:45:41;;;;;;;;;;;;;;;-144.99;100.00;52615.25;5024996;28;20361;-72
2024/02/13 01:48:10;;;;;;;;;;;;;;;-144.99;100.00;52611.16;5026935;28;20118;-74
2024/02/13 01:50:38;;;;;;;;;;;;;;;-144.99;100.00;52631.53;5025951;28;19929;-72
2024/02/13 01:53:05;;;;;;;;;;;;;;;-144.99;100.00;52670.28;5024148;28;20178;-72
2024/02/13 01:55:32;;;;;;;;;;;;;;;-144.99;100.00;52598.94;5022036;28;19925;-72
2024/02/13 01:57:59;;;;;;;;;;;;;;;-144.99;100.00;52607.09;5028242;28;20296;-71
2024/02/13 02:00:27;;;;;;;;;;;;;;;-144.99;100.00;52598.94;5023786;28;19948;-71
2024/02/13 02:02:54;;;;;;;;;;;;;;;-144.99;100.00;52635.63;5028819;28;19979;-72
2024/02/13 02:05:20;;;;;;;;;;;;;;;-144.99;100.00;52590.78;5029259;28;20395;-73
2024/02/13 02:07:48;;;;;;;;;;;;;;;-144.99;100.00;52594.84;5028248;28;20235;-74
2024/02/13 02:10:15;;;;;;;;;;;;;;;-144.99;100.00;52619.31;5025860;28;19964;-74
2024/02/13 02:12:42;;;;;;;;;;;;;;;-144.99;100.00;52639.69;5029868;28;19929;-73
2024/02/13 02:15:09;;;;;;;;;;;;;;;-144.99;100.00;52623.38;5029952;28;20192;-75
2024/02/13 02:17:36;;;;;;;;;;;;;;;-144.99;100.00;52590.78;5027490;28;19933;-75
2024/02/13 02:20:02;;;;;;;;;;;;;;;-144.99;100.00;52647.84;5027082;28;20437;-77
2024/02/13 02:22:29;;;;;;;;;;;;;;;-144.99;100.00;52680.47;5029408;28;20023;-75
2024/02/13 02:24:57;;;;;;;;;;;;;;;-144.99;100.00;52615.25;5019567;28;19925;-73
2024/02/13 02:27:25;;;;;;;;;;;;;;;-144.99;100.00;52635.63;5018279;28;20358;-73
2024/02/13 02:29:52;;;;;;;;;;;;;;;-144.99;100.00;52658.03;5020172;28;20024;-67
2024/02/13 02:32:20;;;;;;;;;;;;;;;-144.99;100.00;52586.69;5022102;28;19925;-74
2024/02/13 02:34:47;;;;;;;;;;;;;;;-144.99;100.00;52645.81;5021863;28;19929;-70
2024/02/13 02:37:13;;;;;;;;;;;;;;;-144.99;100.00;52607.09;5029885;28;19932;-68
2024/02/13 02:39:39;;;;;;;;;;;;;;;-144.99;100.00;52578.53;5021639;28;19937;-70
2024/02/13 02:42:06;;;;;;;;;;;;;;;-144.99;100.00;52584.66;5024490;28;20060;-69
2024/02/13 02:44:36;;;;;;;;;;;;;;;-144.99;100.00;52611.16;5027522;28;20303;-69
2024/02/13 02:47:02;;;;;;;;;;;;;;;-144.99;100.00;52562.25;5027046;28;19925;-69
2024/02/13 02:49:29;;;;;;;;;;;;;;;-144.99;100.00;52594.84;5027337;28;19928;-69
2024/02/13 02:51:56;;;;;;;;;;;;;;;-144.99;100.00;52603.00;5024690;28;19979;-69
2024/02/13 02:54:23;;;;;;;;;;;;;;;-144.99;100.00;52600.97;5024684;28;20004;-70
2024/02/13 02:56:50;;;;;;;;;;;;;;;-144.99;100.00;52623.38;5020298;28;19982;-70
2024/02/13 02:59:16;;;;;;;;;;;;;;;-144.99;100.00;52566.31;5028215;28;19925;-68
2024/02/13 03:01:46;;;;;;;;;;;;;;;-144.99;100.00;52627.47;5017779;28;19929;-68
2024/02/13 03:04:13;;;;;;;;;;;;;;;-144.99;100.00;52627.47;5025174;28;19925;-68
2024/02/13 03:06:40;;;;;;;;;;;;;;;-144.99;100.00;52586.69;5026153;28;20028;-68
2024/02/13 03:09:08;;;;;;;;;;;;;;;-144.99;100.00;52607.09;5026014;28;20375;-68
2024/02/13 03:11:34;;;;;;;;;;;;;;;-144.99;100.00;52603.00;5027148;28;19983;-69
2024/02/13 03:14:01;;;;;;;;;;;;;;;-144.99;100.00;52615.25;5024757;28;20306;-69
2024/02/13 03:16:29;;;;;;;;;;;;;;;-144.99;100.00;52623.38;5015558;28;19929;-71
2024/02/13 03:18:57;;;;;;;;;;;;;;;-144.99;100.00;52603.00;5023287;28;20335;-71
2024/02/13 03:21:24;;;;;;;;;;;;;;;-144.99;100.00;52584.66;5024051;28;19926;-70
2024/02/13 03:23:50;;;;;;;;;;;;;;;-144.99;100.00;52623.38;5022766;28;19979;-70
2024/02/13 03:26:17;;;;;;;;;;;;;;;-144.99;100.00;52568.34;5024668;28;20056;-70
2024/02/13 03:28:43;;;;;;;;;;;;;;;-144.99;100.00;52600.97;5027315;28;20111;-70
2024/02/13 03:31:09;;;;;;;;;;;;;;;-144.99;100.00;52635.63;5021435;28;20418;-71
2024/02/13 03:33:36;;;;;;;;;;;;;;;-144.99;100.00;52588.75;5018394;28;20263;-73
2024/02/13 03:36:04;;;;;;;;;;;;;;;-144.99;100.00;52607.09;5028982;28;19987;-73
2024/02/13 03:38:30;;;;;;;;;;;;;;;-144.99;100.00;52617.28;5023753;28;20019;-73
2024/02/13 03:40:57;;;;;;;;;;;;;;;-144.99;100.00;52627.47;5023283;28;20055;-72
2024/02/13 03:43:23;;;;;;;;;;;;;;;-144.99;100.00;52594.84;5026736;28;20322;-72
2024/02/13 03:45:50;;;;;;;;;;;;;;;-144.99;100.00;52615.25;5020544;28;19932;-72
2024/02/13 03:48:17;;;;;;;;;;;;;;;-144.99;100.00;52592.81;5024050;28;20387;-74
2024/02/13 03:50:44;;;;;;;;;;;;;;;-144.99;100.00;52611.16;5026851;28;19929;-72
2024/02/13 03:53:12;;;;;;;;;;;;;;;-144.99;100.00;52582.63;5030047;28;20365;-76
2024/02/13 03:55:39;;;;;;;;;;;;;;;-144.99;100.00;52594.84;5026574;28;19953;-75
2024/02/13 03:58:05;;;;;;;;;;;;;;;-144.99;100.00;52639.69;5030421;28;20356;-72
2024/02/13 04:00:32;;;;;;;;;;;;;;;-144.99;100.00;52598.94;5030803;28;20313;-72
2024/02/13 04:02:59;;;;;;;;;;;;;;;-144.99;100.00;52592.81;5031918;28;19933;-74
2024/02/13 04:05:25;;;;;;;;;;;;;;;-144.99;100.00;52598.94;5030645;28;20020;-72
2024/02/13 04:07:54;;;;;;;;;;;;;;;-144.99;100.00;52653.97;5028438;28;19933;-75
2024/02/13 04:10:22;;;;;;;;;;;;;;;-144.99;100.00;52598.94;5032712;28;19960;-74
2024/02/13 04:12:49;;;;;;;;;;;;;;;-144.99;100.00;52619.31;5032614;28;20003;-75
2024/02/13 04:15:15;;;;;;;;;;;;;;;-144.99;100.00;52598.94;5032427;28;20383;-75
2024/02/13 04:17:42;;;;;;;;;;;;;;;-144.99;100.00;52615.25;5037443;28;19956;-74
2024/02/13 04:20:09;;;;;;;;;;;;;;;-144.99;100.00;52605.03;5037902;28;19929;-74
2024/02/13 04:22:36;;;;;;;;;;;;;;;-144.99;100.00;52607.09;5041122;28;19979;-74
2024/02/13 04:25:02;;;;;;;;;;;;;;;-144.99;100.00;52623.38;5041378;28;20044;-75
2024/02/13 04:27:30;;;;;;;;;;;;;;;-144.99;100.00;52615.25;5039037;28;19986;-75
2024/02/13 04:29:57;;;;;;;;;;;;;;;-144.99;100.00;52631.53;5035276;28;19929;-75
2024/02/13 04:32:23;;;;;;;;;;;;;;;-144.99;100.00;52639.69;5034006;28;19929;-77
2024/02/13 04:34:50;;;;;;;;;;;;;;;-144.99;100.00;52611.16;5033089;28;20260;-77
2024/02/13 04:37:16;;;;;;;;;;;;;;;-144.99;100.00;52641.72;5019318;28;20039;-78
2024/02/13 04:39:42;;;;;;;;;;;;;;;-144.99;100.00;52631.53;5022856;28;19976;-78
2024/02/13 04:42:10;;;;;;;;;;;;;;;-144.99;100.00;52603.00;5029203;28;20396;-79
2024/02/13 04:44:39;;;;;;;;;;;;;;;-144.99;100.00;52598.94;5020020;28;20090;-78
2024/02/13 04:47:06;;;;;;;;;;;;;;;-144.99;100.00;52578.53;5029450;28;19967;-70
2024/02/13 04:49:32;;;;;;;;;;;;;;;-144.99;100.00;52611.16;5028680;28;20666;-69
2024/02/13 04:51:59;;;;;;;;;;;;;;;-144.99;100.00;52615.25;5026593;28;19952;-69
2024/02/13 04:54:26;;;;;;;;;;;;;;;-144.99;100.00;52615.25;5022159;28;20225;-69
2024/02/13 04:56:54;;;;;;;;;;;;;;;-144.99;100.00;52619.31;5024701;28;20475;-69
2024/02/13 04:59:22;;;;;;;;;;;;;;;-144.99;100.00;52611.16;5031740;28;19925;-69
2024/02/13 05:01:52;;;;;;;;;;;;;;;-144.99;100.00;52590.78;5024148;28;19929;-67
2024/02/13 05:07:20;;;;;;;;;;;;;;;-144.99;100.00;52635.63;5020558;28;19972;-68
2024/02/13 05:09:47;;;;;;;;;;;;;;;-144.99;100.00;52594.84;5025275;28;20167;-67
2024/02/13 05:12:14;;;;;;;;;;;;;;;-144.99;100.00;52617.28;5025886;28;20024;-70
2024/02/13 05:14:41;;;;;;;;;;;;;;;-144.99;100.00;52619.31;5027958;28;20370;-67
2024/02/13 05:17:11;;;;;;;;;;;;;;;-144.99;100.00;52584.66;5027489;28;19925;-67
2024/02/13 05:19:38;;;;;;;;;;;;;;;-144.99;100.00;52611.16;5022214;28;19951;-67
2024/02/13 05:22:05;;;;;;;;;;;;;;;-144.99;100.00;52600.97;5022728;28;19925;-67
2024/02/13 05:24:32;;;;;;;;;;;;;;;-144.99;100.00;52615.25;5026409;28;19930;-65
2024/02/13 05:26:59;;;;;;;;;;;;;;;-144.99;100.00;52623.38;5027463;28;20020;-68
2024/02/13 05:29:25;;;;;;;;;;;;;;;-144.99;100.00;52639.69;5016542;28;19988;-68
2024/02/13 05:31:52;;;;;;;;;;;;;;;-144.99;100.00;52611.16;5018500;28;20021;-68
2024/02/13 05:34:20;;;;;;;;;;;;;;;-144.99;100.00;52629.50;5024651;28;20024;-67
2024/02/13 05:36:47;;;;;;;;;;;;;;;-144.99;100.00;52615.25;5023705;28;20452;-64
2024/02/13 05:39:14;;;;;;;;;;;;;;;-144.99;100.00;52600.97;5020194;28;20220;-66
2024/02/13 05:41:43;;;;;;;;;;;;;;;-144.99;100.00;52660.09;5025605;28;19980;-66
2024/02/13 05:44:09;;;;;;;;;;;;;;;-144.99;100.00;52594.84;5027888;28;19925;-65
2024/02/13 05:46:37;;;;;;;;;;;;;;;-144.99;100.00;52639.69;5025041;28;19936;-64
2024/02/13 05:49:03;;;;;;;;;;;;;;;-144.99;100.00;52600.97;5028030;28;19925;-68
2024/02/13 05:51:31;;;;;;;;;;;;;;;-144.99;100.00;52578.53;5028143;28;20027;-65
2024/02/13 05:53:58;;;;;;;;;;;;;;;-144.99;100.00;52621.34;5028221;28;19925;-70
2024/02/13 05:56:25;;;;;;;;;;;;;;;-144.99;100.00;52619.31;5024547;28;20307;-69
2024/02/13 05:58:51;;;;;;;;;;;;;;;-144.99;100.00;52647.84;5021759;28;20399;-69
2024/02/13 06:01:18;;;;;;;;;;;;;;;-144.99;100.00;52619.31;5022238;28;19925;-69
2024/02/13 06:03:44;;;;;;;;;;;;;;;-144.99;100.00;52613.19;5025487;28;20346;-70
2024/02/13 06:06:11;;;;;;;;;;;;;;;-144.99;100.00;52647.84;5024378;28;19929;-70
2024/02/13 06:08:39;;;;;;;;;;;;;;;-144.99;100.00;52651.94;5020174;28;20056;-69
2024/02/13 06:11:05;;;;;;;;;;;;;;;-144.99;100.00;52594.84;5027664;28;20060;-70
2024/02/13 06:13:33;;;;;;;;;;;;;;;-144.99;100.00;52627.47;5028162;28;19964;-70
2024/02/13 06:16:00;;;;;;;;;;;;;;;-144.99;100.00;52607.09;5027992;28;19935;-71
2024/02/13 06:18:26;;;;;;;;;;;;;;;-144.99;100.00;52605.03;5022724;28;19932;-70
2024/02/13 06:20:53;;;;;;;;;;;;;;;-144.99;100.00;52603.00;5027332;28;19925;-70
2024/02/13 06:23:20;;;;;;;;;;;;;;;-144.99;100.00;52647.84;5017231;28;19925;-70
2024/02/13 06:25:48;;;;;;;;;;;;;;;-144.99;100.00;52607.09;5011619;28;19929;-70
2024/02/13 06:28:15;;;;;;;;;;;;;;;-144.99;100.00;52633.59;5024806;28;19925;-71
2024/02/13 06:30:43;;;;;;;;;;;;;;;-144.99;100.00;52623.38;5017611;28;20023;-71
2024/02/13 06:33:10;;;;;;;;;;;;;;;-144.99;100.00;52615.25;5019185;28;19941;-70
2024/02/13 06:35:36;;;;;;;;;;;;;;;-144.99;100.00;52623.38;5024530;28;20482;-70
2024/02/13 06:38:03;;;;;;;;;;;;;;;-144.99;100.00;52623.38;5026948;28;19976;-70
2024/02/13 06:40:30;;;;;;;;;;;;;;;-144.99;100.00;52621.34;5024251;28;19925;-70
2024/02/13 06:42:58;;;;;;;;;;;;;;;-144.99;100.00;52607.09;5021585;28;19925;-74
2024/02/13 06:45:25;;;;;;;;;;;;;;;-144.99;100.00;52611.16;5026287;28;19928;-73
2024/02/13 06:47:52;;;;;;;;;;;;;;;-144.99;100.00;52643.78;5023162;28;20022;-76
2024/02/13 06:50:19;;;;;;;;;;;;;;;-144.99;100.00;52623.38;5024377;28;19985;-75
2024/02/13 06:52:50;;;;;;;;;;;;;;;-144.99;100.00;52627.47;5027191;28;19944;-79
2024/02/13 06:55:16;;;;;;;;;;;;;;;-144.99;100.00;52611.16;4321524;28;10020765;-74
2024/02/13 06:57:43;;;;;;;;;;;;;;;-144.99;100.00;52603.00;5017256;28;19971;-75
2024/02/13 07:00:13;;;;;;;;;;;;;;;-144.99;100.00;52574.47;5025806;28;19976;-74
2024/02/13 07:02:39;;;;;;;;;;;;;;;-144.99;100.00;52562.25;5021615;28;19929;-74
2024/02/13 07:05:08;;;;;;;;;;;;;;;-144.99;100.00;52619.31;5016387;28;20007;-72
2024/02/13 07:07:34;;;;;;;;;;;;;;;-144.99;100.00;52607.09;5025583;28;19991;-72
2024/02/13 07:10:01;;;;;;;;;;;;;;;-144.99;100.00;52627.47;5020262;28;20447;-72
2024/02/13 07:12:27;;;;;;;;;;;;;;;-144.99;100.00;52611.16;5019997;28;19929;-73
2024/02/13 07:14:55;;;;;;;;;;;;;;;-144.99;100.00;52641.72;5021769;28;20132;-72
2024/02/13 07:17:23;;;;;;;;;;;;;;;-144.99;100.00;52600.97;5020662;28;20910;-73
2024/02/13 07:19:50;;;;;;;;;;;;;;;-144.99;100.00;52635.63;5025033;28;20020;-76
2024/02/13 07:22:17;;;;;;;;;;;;;;;-144.99;100.00;52592.81;5025411;28;19996;-73
2024/02/13 07:24:44;;;;;;;;;;;;;;;-144.99;100.00;52617.28;5025253;28;20022;-73
2024/02/13 07:27:10;;;;;;;;;;;;;;;-144.99;100.00;52607.09;5023835;28;19929;-73
2024/02/13 07:29:39;;;;;;;;;;;;;;;-144.99;100.00;52586.69;5019934;28;20139;-73
2024/02/13 07:32:06;;;;;;;;;;;;;;;-144.99;100.00;52598.94;5025479;28;19951;-74
2024/02/13 07:34:37;;;;;;;;;;;;;;;-144.99;100.00;52607.09;5026706;28;19971;-74
2024/02/13 07:37:04;;;;;;;;;;;;;;;-144.99;100.00;52574.47;5025538;28;19929;-73
2024/02/13 07:39:30;;;;;;;;;;;;;;;-144.99;100.00;52594.84;5019522;28;20014;-74
2024/02/13 07:41:57;;;;;;;;;;;;;;;-144.99;100.00;52574.47;5021146;28;20036;-73
2024/02/13 07:44:23;;;;;;;;;;;;;;;-144.99;100.00;52570.38;5027005;28;19929;-73
2024/02/13 07:46:50;;;;;;;;;;;;;;;-144.99;100.00;52643.78;5020145;28;19933;-75
2024/02/13 07:49:16;;;;;;;;;;;;;;;-144.99;100.00;52598.94;5026698;28;20457;-75
2024/02/13 07:51:44;;;;;;;;;;;;;;;-144.99;100.00;52594.84;5028163;28;19972;-73
2024/02/13 07:54:12;;;;;;;;;;;;;;;-144.99;100.00;52603.00;5020939;28;19991;-73
2024/02/13 07:56:40;;;;;;;;;;;;;;;-144.99;100.00;52598.94;5029583;28;19939;-74
2024/02/13 07:59:09;;;;;;;;;;;;;;;-144.99;100.00;52594.84;5028588;28;19937;-74
2024/02/13 08:01:35;;;;;;;;;;;;;;;-144.99;100.00;52582.63;5030325;28;20487;-74
2024/02/13 08:04:02;;;;;;;;;;;;;;;-144.99;100.00;52645.81;5029411;28;19991;-75
2024/02/13 08:06:28;;;;;;;;;;;;;;;-144.99;100.00;52635.63;5019753;28;19925;-74
2024/02/13 08:08:56;;;;;;;;;;;;;;;-144.99;100.00;52611.16;5024987;28;19953;-73
2024/02/13 08:11:23;;;;;;;;;;;;;;;-144.99;100.00;52623.38;5016075;28;19979;-73
2024/02/13 08:13:49;;;;;;;;;;;;;;;-144.99;100.00;52570.38;5016977;28;19975;-74
2024/02/13 08:16:15;;;;;;;;;;;;;;;-144.99;100.00;52598.94;5028021;28;20020;-74
2024/02/13 08:18:42;;;;;;;;;;;;;;;-144.99;100.00;52590.78;5024658;28;20028;-73
2024/02/13 08:21:08;;;;;;;;;;;;;;;-144.99;100.00;52574.47;5026405;28;19983;-71
2024/02/13 08:23:35;;;;;;;;;;;;;;;-144.99;100.00;52603.00;5027521;28;20052;-71
2024/02/13 08:26:03;;;;;;;;;;;;;;;-144.99;100.00;52611.16;5027606;28;20016;-72
2024/02/13 08:28:30;;;;;;;;;;;;;;;-144.99;100.00;52594.84;5014744;28;20036;-72
2024/02/13 08:30:57;;;;;;;;;;;;;;;-144.99;100.00;52615.25;5017501;28;19937;-71
2024/02/13 08:33:23;;;;;;;;;;;;;;;-144.99;100.00;52590.78;5022916;28;19951;-71
2024/02/13 08:35:52;;;;;;;;;;;;;;;-144.99;100.00;52568.34;5013317;28;20360;-71
2024/02/13 08:38:19;;;;;;;;;;;;;;;-144.99;100.00;52594.84;5018699;28;20359;-72
2024/02/13 08:40:46;;;;;;;;;;;;;;;-144.99;100.00;52590.78;5017890;28;20348;-72
2024/02/13 08:43:14;;;;;;;;;;;;;;;-144.99;100.00;52570.38;5025222;28;19932;-71
2024/02/13 08:45:40;;;;;;;;;;;;;;;-144.99;100.00;52582.63;5015356;28;20020;-74
2024/02/13 08:48:07;;;;;;;;;;;;;;;-144.99;100.00;52558.16;5023677;28;20038;-72
2024/02/13 08:50:34;;;;;;;;;;;;;;;-144.99;100.00;52578.53;5025308;28;20052;-72
2024/02/13 08:53:01;;;;;;;;;;;;;;;-144.99;100.00;52594.84;5026794;28;20168;-72
2024/02/13 08:55:28;;;;;;;;;;;;;;;-144.99;100.00;52590.78;5020569;28;19968;-73
2024/02/13 08:57:54;;;;;;;;;;;;;;;-144.99;100.00;52562.25;5025163;28;19937;-72
2024/02/13 09:00:22;;;;;;;;;;;;;;;-144.99;100.00;52566.31;5030588;28;19929;-74
2024/02/13 09:02:49;;;;;;;;;;;;;;;-144.99;100.00;52562.25;5019541;28;20021;-73
2024/02/13 09:05:15;;;;;;;;;;;;;;;-144.99;100.00;52566.31;5023550;28;19929;-72
2024/02/13 09:07:42;;;;;;;;;;;;;;;-144.99;100.00;52635.63;5018449;28;20407;-72
2024/02/13 09:10:12;;;;;;;;;;;;;;;-144.99;100.00;52611.16;5025376;28;20055;-72
2024/02/13 09:12:38;;;;;;;;;;;;;;;-144.99;100.00;52574.47;5026464;28;19979;-73
2024/02/13 09:15:09;;;;;;;;;;;;;;;-144.99;100.00;52619.31;5024607;28;20356;-73
2024/02/13 09:17:39;;;;;;;;;;;;;;;-144.99;100.00;52635.63;5021552;28;20252;-72
2024/02/13 09:20:06;;;;;;;;;;;;;;;-144.99;100.00;52615.25;5020129;28;20023;-72
2024/02/13 09:22:33;;;;;;;;;;;;;;;-144.99;100.00;52592.81;5024689;28;19933;-73
2024/02/13 09:24:59;;;;;;;;;;;;;;;-144.99;100.00;52619.31;5024260;28;19968;-73
2024/02/13 09:27:26;;;;;;;;;;;;;;;-144.99;100.00;52603.00;5021937;28;20296;-72
2024/02/13 09:29:53;;;;;;;;;;;;;;;-144.99;100.00;52590.78;5025745;28;19983;-72
2024/02/13 09:32:20;;;;;;;;;;;;;;;-144.99;100.00;52570.38;5022878;28;19929;-72
2024/02/13 09:34:48;;;;;;;;;;;;;;;-144.99;100.00;52582.63;5007778;28;20377;-73
2024/02/13 09:37:15;;;;;;;;;;;;;;;-144.99;100.00;52613.19;5024533;28;19935;-73
2024/02/13 09:39:42;;;;;;;;;;;;;;;-144.99;100.00;52578.53;5024423;28;19939;-73
2024/02/13 09:42:09;;;;;;;;;;;;;;;-144.99;100.00;52623.38;5021034;28;19991;-73
2024/02/13 09:44:36;;;;;;;;;;;;;;;-144.99;100.00;52627.47;5028554;28;19925;-72
2024/02/13 09:47:04;;;;;;;;;;;;;;;-144.99;100.00;52562.25;5030152;28;19941;-76
2024/02/13 09:49:31;;;;;;;;;;;;;;;-144.99;100.00;52590.78;5028492;28;19935;-73
2024/02/13 09:52:00;;;;;;;;;;;;;;;-144.99;100.00;52615.25;5017031;28;20019;-72
2024/02/13 09:54:28;;;;;;;;;;;;;;;-144.99;100.00;52568.34;5020166;28;19935;-73
2024/02/13 09:56:55;;;;;;;;;;;;;;;-144.99;100.00;52578.53;5015957;28;20062;-72
2024/02/13 09:59:22;;;;;;;;;;;;;;;-144.99;100.00;52623.38;5024845;28;20284;-73
2024/02/13 10:01:49;;;;;;;;;;;;;;;-144.99;100.00;52586.69;5022697;28;20071;-72
2024/02/13 10:04:15;;;;;;;;;;;;;;;-144.99;100.00;52619.31;5018882;28;19929;-73
2024/02/13 10:06:42;;;;;;;;;;;;;;;-144.99;100.00;52594.84;5026278;28;20087;-72
2024/02/13 10:09:11;;;;;;;;;;;;;;;-144.99;100.00;52598.94;5015825;28;19935;-75
2024/02/13 10:11:38;;;;;;;;;;;;;;;-144.99;100.00;52623.38;5024170;28;20019;-72
2024/02/13 10:14:05;;;;;;;;;;;;;;;-144.99;100.00;52572.44;5022661;28;19932;-71
2024/02/13 10:16:32;;;;;;;;;;;;;;;-144.99;100.00;52582.63;5025449;28;20509;-72
2024/02/13 10:19:01;;;;;;;;;;;;;;;-144.99;100.00;52598.94;5018957;28;19933;-71
2024/02/13 10:21:29;;;;;;;;;;;;;;;-144.99;100.00;52592.81;5022430;28;19978;-72
2024/02/13 10:24:04;;;;;;;;;;;;;;;-144.99;100.00;52578.53;5020059;28;19925;-74
2024/02/13 10:26:32;;;;;;;;;;;;;;;-144.99;100.00;52607.09;5019609;28;20350;-74
2024/02/13 10:29:00;;;;;;;;;;;;;;;-144.99;100.00;52607.09;5014086;28;19944;-71
2024/02/13 10:31:27;;;;;;;;;;;;;;;-144.99;100.00;52635.63;5016040;28;19989;-71
2024/02/13 10:33:54;;;;;;;;;;;;;;;-144.99;100.00;52625.44;5022970;28;19944;-71
2024/02/13 10:36:21;;;;;;;;;;;;;;;-144.99;100.00;52598.94;5024622;28;19932;-71
2024/02/13 10:38:48;;;;;;;;;;;;;;;-144.99;100.00;52582.63;5025242;28;19973;-71
2024/02/13 10:41:21;;;;;;;;;;;;;;;-144.99;100.00;52603.00;5016354;28;20378;-72
2024/02/13 10:43:52;;;;;;;;;;;;;;;-144.99;100.00;52615.25;5019365;28;19932;-72
2024/02/13 10:46:22;;;;;;;;;;;;;;;-144.99;100.00;52603.00;5022610;28;20059;-75
2024/02/13 10:48:52;;;;;;;;;;;;;;;-144.99;100.00;52615.25;5021704;28;19929;-73
2024/02/13 10:51:19;;;;;;;;;;;;;;;-144.99;100.00;52578.53;5020008;28;20402;-72
2024/02/13 10:53:48;;;;;;;;;;;;;;;-144.99;100.00;52562.25;5024108;28;19976;-73
2024/02/13 10:56:15;;;;;;;;;;;;;;;-144.99;100.00;52558.16;5023633;28;20438;-74
2024/02/13 10:58:44;;;;;;;;;;;;;;;-144.99;100.00;52607.09;5021875;28;20023;-73
2024/02/13 11:01:14;;;;;;;;;;;;;;;-144.99;100.00;52568.34;5022551;28;19936;-73
2024/02/13 11:03:42;;;;;;;;;;;;;;;-144.99;100.00;52590.78;5025010;28;19929;-75
2024/02/13 11:06:09;;;;;;;;;;;;;;;-144.99;100.00;52596.88;5021744;28;20028;-76
2024/02/13 11:08:36;;;;;;;;;;;;;;;-144.99;100.00;52582.63;5019812;28;20057;-72
2024/02/13 11:11:03;;;;;;;;;;;;;;;-144.99;100.00;52590.78;5023343;28;20469;-73
2024/02/13 11:13:30;;;;;;;;;;;;;;;-144.99;100.00;52603.00;5024509;28;19964;-72
2024/02/13 11:15:57;;;;;;;;;;;;;;;-144.99;100.00;52562.25;5016656;28;20036;-72
2024/02/13 11:18:28;;;;;;;;;;;;;;;-144.99;100.00;52586.69;5024429;28;20411;-73
2024/02/13 11:20:55;;;;;;;;;;;;;;;-144.99;100.00;52570.38;5020381;28;20307;-73
2024/02/13 11:23:28;;;;;;;;;;;;;;;-144.99;100.00;52574.47;5020281;28;19935;-73
2024/02/13 11:26:00;;;;;;;;;;;;;;;-144.99;100.00;52603.00;5024251;28;20387;-73
2024/02/13 11:28:35;;;;;;;;;;;;;;;-144.99;100.00;52611.16;5022464;28;20917;-73
2024/02/13 11:31:12;;;;;;;;;;;;;;;-144.99;100.00;52623.38;5019215;28;19933;-73
2024/02/13 11:34:00;;;;;;;;;;;;;;;-144.99;100.00;52611.16;5018523;28;19933;-74
2024/02/13 11:36:28;;;;;;;;;;;;;;;-144.99;100.00;52596.88;5021166;28;20319;-73
2024/02/13 11:38:57;;;;;;;;;;;;;;;-144.99;100.00;52580.59;5013753;28;19969;-72
2024/02/13 11:41:23;;;;;;;;;;;;;;;-144.99;100.00;52562.25;5017536;28;19933;-73
2024/02/13 11:43:50;;;;;;;;;;;;;;;-144.99;100.00;52598.94;5023110;28;19948;-72
2024/02/13 11:46:16;;;;;;;;;;;;;;;-144.99;100.00;52570.38;5016753;28;19959;-73
2024/02/13 11:48:44;;;;;;;;;;;;;;;-144.99;100.00;52623.38;5014128;28;20249;-74
2024/02/13 11:51:11;;;;;;;;;;;;;;;-144.99;100.00;52586.69;5018973;28;20477;-73
2024/02/13 11:53:38;;;;;;;;;;;;;;;-144.99;100.00;52615.25;5021459;28;19991;-72
2024/02/13 11:56:05;;;;;;;;;;;;;;;-144.99;100.00;52598.94;5018334;28;20007;-72
2024/02/13 11:58:31;;;;;;;;;;;;;;;-144.99;100.00;52594.84;5015372;28;20509;-72
2024/02/13 12:01:00;;;;;;;;;;;;;;;-144.99;100.00;52550.00;5031704;28;19929;-72
2024/02/13 12:03:27;;;;;;;;;;;;;;;-144.99;100.00;52590.78;5026918;28;20367;-72
2024/02/13 12:05:55;;;;;;;;;;;;;;;-144.99;100.00;52603.00;5027022;28;20276;-73
2024/02/13 12:08:22;;;;;;;;;;;;;;;-144.99;100.00;52621.34;5026030;28;19929;-71
2024/02/13 12:10:49;;;;;;;;;;;;;;;-144.99;100.00;52568.34;5027073;28;19933;-71
2024/02/13 12:13:18;;;;;;;;;;;;;;;-144.99;100.00;52615.25;5017921;28;19929;-72
2024/02/13 12:15:44;;;;;;;;;;;;;;;-144.99;100.00;52590.78;5024674;28;19929;-72
2024/02/13 12:18:11;;;;;;;;;;;;;;;-144.99;100.00;52586.69;5027488;28;20291;-71
2024/02/13 12:20:38;;;;;;;;;;;;;;;-144.99;100.00;52594.84;5026012;28;20383;-71